Marysville, KS

6:30 PM CDT on July 31, 2014 (GMT -0500)
N0NB (KKSBREME2) Elev 1312 ft | 39.91 °N, 96.77 °W | Change Station

Current weather conditions updated 4 minutes ago

Scattered Clouds
Scattered Clouds
86.1 °F
Feels Like 84 °F
N
8.0
Wind Variable Wind from SW
Gusts 11.0 mph

Tomorrow is forecast to be nearly the same temperature as today.

Today
High -- | Low -- °F
--% Chance of Precip.
Yesterday
High -- | Low -- °F
Precip. -- in
6:24 AM 8:40 PM
Waxing Crescent, 21% visible
Pressure 30.01 in
Visibility 10.0 miles
Clouds Scattered Clouds 11000 ft
Heat Index 84 °F
Dew Point 54 °F
Humidity 34%
Rainfall 0.00 in
Snow Depth Not available.
UV 2 out of 12
Pollen 6.70 out of 12
Air Quality Not available.
Flu Activity Not available.
METAR KBIE 312315Z AUTO 13005KT 10SM SCT110 30/14 A3001 RMK AO2 T02980136

More Conditions Fewer Conditions

Pressure 30.01 in
Visibility 10.0 miles
Clouds Scattered Clouds 11000 ft
Heat Index 84 °F
Dew Point 54 °F
Humidity 34%
Rainfall 0.00 in
Snow Depth Not available.
UV 2 out of 12
Pollen 6.70 out of 12
Air Quality Not available.
Flu Activity Not available.
METAR KBIE 312315Z AUTO 13005KT 10SM SCT110 30/14 A3001 RMK AO2 T02980136

More Conditions Fewer Conditions

10-Day Weather Forecast

Almanac

Astronomy

Jul. 31, 2014 Rise Set
Actual Time 6:24 AM CDT 8:40 PM CDT
Civil Twilight 5:54 AM CDT 9:11 PM CDT
Nautical Twilight 5:16 AM CDT 9:48 PM CDT
Astronomical Twilight 4:35 AM CDT 10:29 PM CDT
Moon 10:52 AM CDT 10:54 PM CDT
Length of Visible Light 15h 16m
Length of Day
14h 16m
Tomorrow will be 1m 57s shorter.
Waxing Crescent, 21% of the Moon is Illuminated
Today
Waxing Crescent
Aug 3
First Quarter
Aug 10
Full
Aug 17
Last Quarter
Aug 25
New

Today's Extremes

State Highs State Lows

Community

WunderPhotos

Upload Photos

1,739,462 photos uploaded!

Nearby

Snow Depth

Station Depth Elevation
No new snow has been reported.

Earthquake Activity

City Distance Mag. Time & Date
No recent earthquake activity has been reported nearby.
Minimum magnitude displayed is 2.5.

Coastal Water Temperatures

Place Temperature
No Stations Reporting

Nearby Weather Stations

Station Location Temp. Heat Index Dew Point Humidity Wind Precip. Elev Updated Type
N0NB, Bremen, KS 86.1 °F 84 °F 54 °F 34% SW  at  8.0 mph 0.00 in / hr 1312 ft 6:25 PM CDT Normal
MesoWest BREME1 , Hanover, KS 93 °F 89 °F - - North  at  - 0.00 in / hr 1318 ft 5:00 PM CDT MADIS
MesoWest AXTELL , Axtell, KS 87 °F 84 °F - - North  at  - 0.00 in / hr 1337 ft 4:55 PM CDT MADIS
MesoWest LILLIS , Vermillion, KS 89 °F 86 °F - - North  at  - 0.00 in / hr 1252 ft 5:00 PM CDT MADIS

Show More Stations Show Fewer Stations